Tiempo atmosférico en la estación meteorológica de Esterri d?Àneu, Lleida (940 m.)



Fecha
DESCASC
Temp. máxima en grados centígrados (hora)
DESCASC
Temp. mínima en grados centígrados (hora)
DESCASC
Temp. media en grados centígrados
DESCASC
Racha de viento máxima en m/sg (hora)
DESCASC
Velocidad máxima media en intervalos de 10 minutos(hora)
DESCASC
Precipitaciones diarias en mm
DESCASC
Precipitaciones de 00:00 a 06:00 en mm
DESCASC
Precipitaciones de 06:00 a 12:00 en mm
DESCASC
Precipitaciones de 12:00 a 18:00 en mm
DESCASC
Precipitaciones de 18:00 a 24:00 en mm
DESCASC

Gráficas

Temp. máximas Temp. mínimas Temp. medias Precipitaciones Rachas de viento máximas Velocidades máximas media en intervalos de 10 minutos

Datos horarios

Fecha y hora oficial Temperatura (ºC) Velocidad del viento (km/h) Dirección del viento Racha (km/h) Dirección de racha Precipitación (mm) Presión (hPa) Tendencia (hPa) Humedad (%)
2018-02-20 23:00:00 5.9 8 Norte 39 Norte 0 -- -- --
2018-02-20 22:00:00 6.9 14 Norte 33 Norte 0 -- -- --
2018-02-20 21:00:00 6.7 11 Norte 26 Norte 0 -- -- --
2018-02-20 20:00:00 6.9 9 Norte 28 Nordeste 0 -- -- --
2018-02-20 19:00:00 7 8 Norte 23 Norte 0 -- -- --
2018-02-20 18:00:00 7.5 10 Norte 27 Norte 0 -- -- --
2018-02-20 17:00:00 7.3 5 Norte 30 Norte 0 -- -- --
2018-02-20 16:00:00 8.1 7 Norte 31 Norte 0 -- -- --
2018-02-20 15:00:00 8.5 12 Noroeste 28 Noroeste 0 -- -- --
2018-02-20 14:00:00 8 11 Norte 26 Noroeste 0.2 -- -- --
2018-02-20 13:00:00 6.7 6 Norte 25 Noroeste 0.4 -- -- --
2018-02-20 12:00:00 6.3 4 Norte 13 Norte 0.6 -- -- --
2018-02-20 11:00:00 6.1 3 Nordeste 15 Norte 0.6 -- -- --
2018-02-20 10:00:00 5.7 3 Nordeste 20 Norte 0.6 -- -- --
2018-02-20 09:00:00 5.6 6 Norte 23 Norte 0.6 -- -- --
2018-02-20 08:00:00 5.2 4 Nordeste 19 Norte 0.6 -- -- --
2018-02-20 07:00:00 6.3 11 Norte 47 Noroeste 0.2 -- -- --
2018-02-20 06:00:00 7.7 21 Noroeste 40 Norte 0.2 -- -- --
2018-02-20 05:00:00 5.7 2 Nordeste 11 Norte 0 -- -- --
2018-02-20 04:00:00 5.8 2 Nordeste 17 Noroeste 0.4 -- -- --
2018-02-20 03:00:00 5.7 4 Nordeste 12 Nordeste 0 -- -- --
2018-02-20 02:00:00 5.6 6 Nordeste 15 Nordeste 0 -- -- --
2018-02-20 01:00:00 5.6 2 Nordeste 14 Nordeste 0.2 -- -- --
2018-02-20 00:00:00 5.6 5 Nordeste 11 Nordeste 0 -- -- --
2018-02-19 23:00:00 5.5 4 Nordeste 15 Nordeste 0.4 -- -- --
2018-02-19 22:00:00 5.6 2 Nordeste 8 Sudeste 0.4 -- -- --
2018-02-19 21:00:00 5.4 0 Calma 6 Noroeste 0.6 -- -- --
2018-02-19 20:00:00 5.9 0 Calma 12 Este 0.8 -- -- --
2018-02-19 19:00:00 6.4 4 Nordeste 14 Norte 0.8 -- -- --
2018-02-19 18:00:00 8 7 Nordeste 21 Noroeste 0 -- -- --
2018-02-19 17:00:00 9.8 7 Norte 21 Noroeste 0 -- -- --
2018-02-19 16:00:00 10.2 11 Noroeste 28 Oeste 0 -- -- --
2018-02-19 15:00:00 11.1 12 Norte 28 Norte 0 -- -- --
2018-02-19 14:00:00 10.3 10 Noroeste 26 Norte 0 -- -- --
2018-02-19 13:00:00 10.1 10 Noroeste 23 Noroeste 0 -- -- --
2018-02-19 12:00:00 8.9 10 Norte 22 Norte 0 -- -- --
2018-02-19 11:00:00 6.2 2 Sudeste 8 Sur 0.4 -- -- --
2018-02-19 10:00:00 3.3 0 Calma 4 Sur 0 -- -- --
2018-02-19 09:00:00 2.6 0 Calma 4 Sudeste 0 -- -- --
2018-02-19 08:00:00 2.4 0 Calma 3 Sur 0.2 -- -- --
2018-02-19 07:00:00 2.4 0 Calma 5 Sudeste 0.4 -- -- --
2018-02-19 06:00:00 2.5 0 Calma 4 Sur 0 -- -- --
2018-02-19 05:00:00 2.6 0 Calma 3 Oeste 0.2 -- -- --
2018-02-19 04:00:00 2.9 0 Calma 4 Sudeste 0.2 -- -- --
2018-02-19 03:00:00 3.2 2 Sudoeste 4 Sur 1.2 -- -- --
2018-02-19 02:00:00 3.3 0 Calma 5 Nordeste 1 -- -- --
2018-02-19 01:00:00 3.4 0 Calma 3 Noroeste 1 -- -- --
2018-02-19 00:00:00 3.5 0 Calma 3 Sudoeste 1 -- -- --
2018-02-18 23:00:00 3.9 0 Calma 2 Noroeste 1.2 -- -- --
2018-02-18 22:00:00 4.2 0 Calma 3 Sur 1 -- -- --
2018-02-18 21:00:00 4.8 2 Sudoeste 4 Oeste 0.6 -- -- --
2018-02-18 20:00:00 5.5 3 Norte 12 Nordeste 0.2 -- -- --
2018-02-18 19:00:00 5.8 4 Nordeste 16 Nordeste 0 -- -- --
2018-02-18 18:00:00 6 12 Nordeste 22 Norte 0 -- -- --
2018-02-18 17:00:00 6.8 8 Norte 28 Norte 0 -- -- --
2018-02-18 16:00:00 8.8 12 Noroeste 28 Norte 0 -- -- --
2018-02-18 15:00:00 10.1 16 Norte 31 Noroeste 0 -- -- --
2018-02-18 14:00:00 10.5 11 Norte 26 Norte 0 -- -- --
2018-02-18 13:00:00 9.8 12 Norte 28 Norte 0 -- -- --
2018-02-18 12:00:00 9.2 12 Norte 26 Noroeste 0 -- -- --
2018-02-18 11:00:00 7.8 8 Norte 23 Norte 0 -- -- --
2018-02-18 10:00:00 5 10 Nordeste 21 Norte 0 -- -- --
2018-02-18 09:00:00 3.3 7 Norte 15 Norte 0 -- -- --
2018-02-18 08:00:00 2.6 2 Sudoeste 21 Nordeste 0 -- -- --
2018-02-18 07:00:00 3.3 9 Nordeste 24 Nordeste 0 -- -- --
2018-02-18 06:00:00 3.1 7 Nordeste 17 Nordeste 0 -- -- --
2018-02-18 05:00:00 3.2 5 Norte 13 Nordeste 0 -- -- --
2018-02-18 04:00:00 2.6 4 Norte 12 Este 0 -- -- --
2018-02-18 03:00:00 1.8 0 Calma 11 Nordeste 0 -- -- --
2018-02-18 02:00:00 2.8 0 Calma 13 Este 0 -- -- --
2018-02-18 01:00:00 3 4 Nordeste 14 Nordeste 0 -- -- --
2018-02-18 00:00:00 3.2 4 Norte 10 Nordeste 0 -- -- --
2018-02-17 23:00:00 3.5 3 Norte 12 Norte 0 -- -- --
2018-02-17 22:00:00 3.9 0 Calma 10 Norte 0 -- -- --
2018-02-17 21:00:00 5.3 5 Norte 13 Nordeste 0 -- -- --
2018-02-17 20:00:00 5.7 0 Calma 20 Norte 0 -- -- --
2018-02-17 19:00:00 6.5 8 Norte 25 Nordeste 0 -- -- --
2018-02-17 18:00:00 7.5 4 Norte 23 Norte 0 -- -- --
2018-02-17 17:00:00 10 11 Noroeste 25 Noroeste 0 -- -- --
2018-02-17 16:00:00 9.9 10 Norte 24 Norte 0 -- -- --
2018-02-17 15:00:00 8.5 4 Norte 28 Norte 0 -- -- --
2018-02-17 14:00:00 9.2 14 Noroeste 27 Noroeste 0 -- -- --
2018-02-17 13:00:00 9.5 11 Noroeste 23 Noroeste 0 -- -- --
2018-02-17 12:00:00 6.3 0 Calma 8 Sudeste 0 -- -- --
2018-02-17 11:00:00 3 0 Calma 5 Norte 0 -- -- --
2018-02-17 10:00:00 1.6 0 Calma 4 Oeste 0 -- -- --
2018-02-17 09:00:00 0.3 0 Calma 5 Sur 0 -- -- --
2018-02-17 08:00:00 -0.5 0 Calma 2 Sudoeste 0 -- -- --
2018-02-17 07:00:00 -0.7 0 Calma 2 Sur 0 -- -- --
2018-02-17 06:00:00 -0.2 0 Calma 3 Sudeste 0 -- -- --
2018-02-17 05:00:00 0.4 0 Calma 4 Sur 0 -- -- --
2018-02-17 04:00:00 1.2 0 Calma 2 Sudoeste 0 -- -- --
2018-02-17 03:00:00 1.2 0 Calma 4 Sur 0 -- -- --
2018-02-17 02:00:00 0.8 0 Calma 3 Sudoeste 0 -- -- --
2018-02-17 01:00:00 1.3 0 Calma 3 Sur 0 -- -- --
2018-02-17 00:00:00 1.7 0 Calma 3 Sudoeste 0 -- -- --
2018-02-16 23:00:00 2.4 0 Calma 3 Sur 0 -- -- --
2018-02-16 22:00:00 3.2 0 Calma 4 Norte 0 -- -- --
2018-02-16 21:00:00 4.2 0 Calma 4 Nordeste 0 -- -- --
2018-02-16 20:00:00 5.3 0 Calma 4 Noroeste 0 -- -- --
2018-02-16 19:00:00 6.6 0 Calma 7 Nordeste 0 -- -- --
2018-02-16 18:00:00 9.4 0 Calma 2 Sudoeste 0 -- -- --
2018-02-16 17:00:00 11 0 Calma 3 Sur 0 -- -- --
2018-02-16 16:00:00 11.2 0 Calma 4 Sur 0 -- -- --
2018-02-16 15:00:00 11.3 0 Calma 7 Sur 0 -- -- --
2018-02-16 14:00:00 10.4 2 Sudoeste 6 Sudoeste 0 -- -- --
2018-02-16 13:00:00 8.4 0 Calma 4 Sur 0 -- -- --
2018-02-16 12:00:00 6.4 0 Calma 4 Sur 0 -- -- --
2018-02-16 11:00:00 3.7 0 Calma 4 Oeste 0 -- -- --
2018-02-16 10:00:00 2 0 Calma 4 Sur 0 -- -- --
2018-02-16 09:00:00 1 0 Calma 5 Sudeste 0 -- -- --
2018-02-16 08:00:00 0.6 0 Calma 4 Sur 0 -- -- --
2018-02-16 07:00:00 0.5 0 Calma 2 Norte 0 -- -- --
2018-02-16 06:00:00 0.2 0 Calma 4 Oeste 0 -- -- --
2018-02-16 05:00:00 0.3 0 Calma 2 Sur 0 -- -- --
2018-02-16 04:00:00 0.7 0 Calma 5 Oeste 0 -- -- --
2018-02-16 03:00:00 0.9 0 Calma 3 Sur 0 -- -- --
2018-02-16 02:00:00 0.9 0 Calma 2 Sur 0 -- -- --
2018-02-16 01:00:00 1.2 0 Calma 4 Este 0 -- -- --
2018-02-16 00:00:00 2 0 Calma 6 Norte 0 -- -- --
2018-02-15 23:00:00 2.8 0 Calma 4 Sur 0 -- -- --
2018-02-15 22:00:00 3.3 0 Calma 4 Sudoeste 0 -- -- --
2018-02-15 21:00:00 4.3 0 Calma 4 Sur 0 -- -- --
2018-02-15 20:00:00 5 0 Calma 3 Sur 0 -- -- --
2018-02-15 19:00:00 6.2 0 Calma 3 Sur 0 -- -- --
2018-02-15 18:00:00 8.5 0 Calma 3 Sur 0 -- -- --
2018-02-15 17:00:00 12.5 0 Calma 6 Oeste 0 -- -- --
2018-02-15 16:00:00 14.3 2 Sur 6 Sudoeste 0 -- -- --
2018-02-15 15:00:00 13.5 2 Sur 4 Sur 0 -- -- --
2018-02-15 14:00:00 10.4 2 Sur 5 Sudoeste 0 -- -- --
2018-02-15 13:00:00 7.4 0 Calma 6 Sudoeste 0 -- -- --
2018-02-15 12:00:00 4.9 0 Calma 5 Sur 0 -- -- --
2018-02-15 11:00:00 3 0 Calma 4 Sudeste 0 -- -- --
2018-02-15 10:00:00 0.5 0 Calma 5 Sudeste 0 -- -- --
2018-02-15 09:00:00 -0.1 0 Calma 2 Sudeste 0 -- -- --
2018-02-15 08:00:00 0 0 Calma 3 Sur 0 -- -- --
2018-02-15 07:00:00 0.3 0 Calma 3 Sudeste 0 -- -- --
2018-02-15 06:00:00 0.4 0 Calma 3 Sudeste 0 -- -- --
2018-02-15 05:00:00 0.5 0 Calma 3 Norte 0 -- -- --
2018-02-15 04:00:00 0.6 0 Calma 3 Sur 0 -- -- --
2018-02-15 03:00:00 0.5 0 Calma 3 Sudeste 0 -- -- --
2018-02-15 02:00:00 0.6 0 Calma 3 Sudoeste 0.2 -- -- --
2018-02-15 01:00:00 0.6 0 Calma 2 Sur 0.2 -- -- --
2018-02-15 00:00:00 0.7 0 Calma 3 Sudeste 0.4 -- -- --
2018-02-14 23:00:00 0.8 0 Calma 2 Norte 0.8 -- -- --
2018-02-14 22:00:00 0.8 0 Calma 3 Sur 2 -- -- --
2018-02-14 21:00:00 0.8 0 Calma 2 Sur 2.2 -- -- --
2018-02-14 20:00:00 0.8 0 Calma 3 Noroeste 2 -- -- --
2018-02-14 19:00:00 1 0 Calma 2 Sur 1.4 -- -- --
2018-02-14 18:00:00 1.6 0 Calma 2 Sudeste 1.2 -- -- --
2018-02-14 17:00:00 2.6 0 Calma 2 Oeste 1 -- -- --
2018-02-14 16:00:00 3.3 0 Calma 3 Sudoeste 1 -- -- --
2018-02-14 15:00:00 3.6 0 Calma 10 Este 1.6 -- -- --
2018-02-14 14:00:00 5.5 4 Este 9 Este 0 -- -- --
2018-02-14 13:00:00 5.7 0 Calma 3 Sudeste 0 -- -- --
2018-02-14 12:00:00 5 0 Calma 5 Sur 0 -- -- --
2018-02-14 11:00:00 3.9 0 Calma 5 Sur 0 -- -- --
2018-02-14 10:00:00 2.7 3 Sur 6 Sudeste 0 -- -- --
2018-02-14 09:00:00 3.2 0 Calma 11 Este 0 -- -- --
2018-02-14 08:00:00 3.4 3 Este 10 Nordeste 0 -- -- --
2018-02-14 07:00:00 3.2 3 Norte 10 Norte 0.2 -- -- --
2018-02-14 06:00:00 2.4 0 Calma 15 Oeste 0 -- -- --
2018-02-14 05:00:00 0.2 2 Norte 8 Oeste 0 -- -- --
2018-02-14 04:00:00 -1.1 0 Calma 6 Noroeste 0 -- -- --
2018-02-14 03:00:00 -1.7 0 Calma 4 Oeste 0 -- -- --
2018-02-14 02:00:00 -1.6 0 Calma 3 Sudeste 0 -- -- --
2018-02-14 01:00:00 -1.7 0 Calma 3 Sudeste 0 -- -- --
2018-02-14 00:00:00 -1.5 0 Calma -- -- 0 -- -- --
2018-02-13 23:00:00 -1.3 0 Calma 2 Sudeste 0 -- -- --
2018-02-13 22:00:00 -1.1 0 Calma 2 Sudeste 0 -- -- --
2018-02-13 21:00:00 -0.8 0 Calma 2 Sudeste 0 -- -- --
2018-02-13 20:00:00 -0.4 2 Norte 10 Nordeste 0 -- -- --
2018-02-13 19:00:00 0.5 6 Norte 14 Norte 0 -- -- --
2018-02-13 18:00:00 2.3 0 Calma 10 Noroeste 0 -- -- --
2018-02-13 17:00:00 3.1 3 Norte 11 Nordeste 0 -- -- --
2018-02-13 16:00:00 4.1 2 Noroeste 5 Noroeste 0 -- -- --
2018-02-13 15:00:00 3.3 2 Sur 5 Sudeste 0 -- -- --
2018-02-13 14:00:00 0.8 2 Sur 5 Sur 0 -- -- --
2018-02-13 13:00:00 -1 0 Calma 4 Sur 0 -- -- --
2018-02-13 12:00:00 -3.4 2 Sur 4 Sur 0 -- -- --
2018-02-13 11:00:00 -5.3 0 Calma 3 Sur 0 -- -- --
2018-02-13 10:00:00 -8.8 0 Calma 2 Sur 0 -- -- --
2018-02-13 09:00:00 -10.4 0 Calma 5 Sur 0 -- -- --
2018-02-13 08:00:00 -10.5 0 Calma 3 Norte 0 -- -- --
2018-02-13 07:00:00 -10.4 0 Calma 5 Sur 0 -- -- --
2018-02-13 06:00:00 -9.5 0 Calma 4 Sudoeste 0 -- -- --
2018-02-13 05:00:00 -8.7 0 Calma 2 Sur 0 -- -- --
2018-02-13 04:00:00 -7.7 0 Calma 4 Sur 0 -- -- --
2018-02-13 03:00:00 -5.7 0 Calma 9 Nordeste 0 -- -- --
2018-02-13 02:00:00 -4 7 Nordeste 17 Noroeste 0 -- -- --
2018-02-13 01:00:00 -3.3 8 Nordeste 20 Nordeste 0 -- -- --
2018-02-13 00:00:00 -2.7 7 Nordeste 15 Nordeste 0 -- -- --
2018-02-12 23:00:00 -2.4 5 Nordeste 12 Nordeste 0 -- -- --
2018-02-12 22:00:00 -1.9 3 Norte 13 Norte 0 -- -- --
2018-02-12 21:00:00 -1.4 5 Norte 22 Norte 0 -- -- --
2018-02-12 20:00:00 -0.6 11 Norte 24 Noroeste 0 -- -- --
2018-02-12 19:00:00 -0.4 8 Norte 22 Noroeste 0 -- -- --
2018-02-12 18:00:00 0.1 9 Norte 25 Nordeste 0 -- -- --
2018-02-12 17:00:00 1.5 13 Norte 27 Norte 0 -- -- --
2018-02-12 16:00:00 2.5 8 Norte 27 Norte 0 -- -- --
2018-02-12 15:00:00 3.1 10 Norte 29 Norte 0 -- -- --
2018-02-12 14:00:00 2.9 10 Norte 26 Norte 0 -- -- --
2018-02-12 13:00:00 3.4 7 Norte 28 Norte 0 -- -- --
2018-02-12 12:00:00 3.4 9 Norte 27 Norte 0 -- -- --
2018-02-12 11:00:00 3.1 13 Norte 24 Norte 0 -- -- --
2018-02-12 10:00:00 2.9 8 Norte 18 Noroeste 0 -- -- --
2018-02-12 09:00:00 2.6 10 Noroeste 19 Norte 0 -- -- --
2018-02-12 08:00:00 2.6 3 Nordeste 17 Noroeste 0 -- -- --
2018-02-12 07:00:00 3.1 0 Calma 28 Norte 0 -- -- --
2018-02-12 06:00:00 3.5 8 Norte 26 Noroeste 0 -- -- --
2018-02-12 05:00:00 3.5 3 Nordeste 12 Norte 0 -- -- --
2018-02-12 04:00:00 3.6 2 Nordeste 9 Nordeste 0 -- -- --
2018-02-12 03:00:00 3.8 4 Norte 10 Noroeste 0 -- -- --
2018-02-12 02:00:00 3.9 2 Nordeste 9 Norte 0 -- -- --
2018-02-12 01:00:00 3.6 3 Norte 9 Nordeste 0 -- -- --
2018-02-12 00:00:00 1.7 0 Calma 6 Norte 0 -- -- --
2018-02-11 23:00:00 1.8 2 Noroeste 5 Norte 0 -- -- --
2018-02-11 22:00:00 2 0 Calma 5 Norte 0 -- -- --
2018-02-11 21:00:00 2.3 0 Calma 4 Sur 0 -- -- --
2018-02-11 20:00:00 3 0 Calma 4 Norte 0 -- -- --
2018-02-11 19:00:00 3.9 2 Este 6 Nordeste 0.2 -- -- --
2018-02-11 18:00:00 5.1 3 Norte 10 Nordeste 0.2 -- -- --
2018-02-11 17:00:00 6.4 5 Sudeste 10 Sudeste 0 -- -- --
2018-02-11 16:00:00 7.1 0 Calma 8 Sur 0 -- -- --
2018-02-11 15:00:00 6.8 0 Calma 5 Sur 0 -- -- --
2018-02-11 14:00:00 5.5 0 Calma 6 Sudeste 0 -- -- --
2018-02-11 13:00:00 2.5 0 Calma 3 Norte 0.2 -- -- --
2018-02-11 12:00:00 2 0 Calma 4 Sur 1 -- -- --
2018-02-11 11:00:00 1.6 0 Calma 4 Sur 1.4 -- -- --
2018-02-11 10:00:00 0.9 0 Calma 4 Sudeste 1.8 -- -- --
2018-02-11 09:00:00 0.5 0 Calma 6 Sudeste 0.6 -- -- --
2018-02-11 08:00:00 0.3 0 Calma 4 Norte 0 -- -- --
2018-02-11 07:00:00 0.8 0 Calma 6 Sudeste 0 -- -- --
2018-02-11 06:00:00 1.9 0 Calma 15 Este 0.2 -- -- --
2018-02-11 05:00:00 3.1 8 Nordeste 22 Nordeste 0.2 -- -- --
2018-02-11 04:00:00 2.7 11 Nordeste 22 Este 0 -- -- --
2018-02-11 03:00:00 2.6 3 Nordeste 17 Este 0 -- -- --
2018-02-11 02:00:00 2.5 3 Norte 23 Noroeste 0 -- -- --
2018-02-11 01:00:00 1.6 7 Este 19 Este 0 -- -- --
2018-02-11 00:00:00 0.5 4 Nordeste 13 Este 0 -- -- --
2018-02-10 23:00:00 0 2 Sudeste 19 Este 0 -- -- --
2018-02-10 22:00:00 0.1 9 Nordeste 17 Nordeste 0 -- -- --
2018-02-10 21:00:00 -1.4 2 Este 13 Sudoeste 0 -- -- --
2018-02-10 20:00:00 -1.2 0 Calma 15 Noroeste 0 -- -- --
2018-02-10 19:00:00 -0.3 5 Noroeste 16 Noroeste 0 -- -- --
2018-02-10 18:00:00 -0.2 4 Noroeste 29 Noroeste 0 -- -- --
2018-02-10 17:00:00 1.1 9 Norte 28 Norte 0.4 -- -- --
2018-02-10 16:00:00 2 9 Norte 26 Norte 0.6 -- -- --
2018-02-10 15:00:00 1.8 13 Norte 37 Norte 0 -- -- --
2018-02-10 14:00:00 1.2 14 Norte 43 Noroeste 0 -- -- --
2018-02-10 13:00:00 0.2 17 Norte 52 Norte 0 -- -- --
2018-02-10 12:00:00 -0.4 19 Norte 48 Noroeste 0 -- -- --
2018-02-10 11:00:00 -0.8 12 Norte 33 Noroeste 0 -- -- --
2018-02-10 10:00:00 -1.7 9 Norte 31 Noroeste 0 -- -- --
2018-02-10 09:00:00 -2.5 11 Norte 30 Norte 0 -- -- --
2018-02-10 08:00:00 -2.2 12 Norte 37 Norte 0 -- -- --
2018-02-10 07:00:00 -2.1 13 Norte 40 Noroeste 0 -- -- --
2018-02-10 06:00:00 -1.9 14 Norte 41 Noroeste 0 -- -- --
2018-02-10 05:00:00 -1.5 19 Norte 46 Noroeste 0 -- -- --
2018-02-10 04:00:00 -0.8 16 Nordeste 42 Nordeste 0 -- -- --
2018-02-10 03:00:00 -2.7 0 Calma 39 Norte 0 -- -- --
2018-02-10 02:00:00 -0.8 13 Norte 32 Norte 0 -- -- --
2018-02-10 01:00:00 -0.9 9 Norte 31 Nordeste 0 -- -- --
2018-02-10 00:00:00 -0.7 11 Norte 31 Nordeste 0 -- -- --
2018-02-09 23:00:00 0 8 Norte 34 Nordeste 0 -- -- --
2018-02-09 22:00:00 0.8 13 Norte 30 Nordeste 0.2 -- -- --
2018-02-09 21:00:00 0.7 2 Sudoeste 14 Norte 0 -- -- --
2018-02-09 20:00:00 1.1 0 Calma 4 Nordeste 0 -- -- --
2018-02-09 19:00:00 2.1 0 Calma 10 Nordeste 0.4 -- -- --
2018-02-09 18:00:00 2.6 3 Norte 15 Norte 0.2 -- -- --
2018-02-09 17:00:00 2.3 0 Calma 3 Sur 0.8 -- -- --
2018-02-09 16:00:00 2.5 0 Calma 2 Sudeste 1 -- -- --
2018-02-09 15:00:00 1.8 0 Calma 4 Oeste 0.6 -- -- --
2018-02-09 14:00:00 0 0 Calma 3 Oeste 0.2 -- -- --
2018-02-09 13:00:00 -1.5 0 Calma 2 Sur 0 -- -- --
2018-02-09 12:00:00 -4.1 2 Sur 4 Sudeste 0 -- -- --
2018-02-09 11:00:00 -7.9 0 Calma 3 Sur 0 -- -- --
2018-02-09 10:00:00 -11.5 0 Calma 3 Sur 0 -- -- --
2018-02-09 09:00:00 -13.3 0 Calma 2 Norte 0 -- -- --
2018-02-09 08:00:00 -13.1 0 Calma 2 Sudoeste 0 -- -- --
2018-02-09 07:00:00 -12.9 0 Calma 2 Sur 0 -- -- --
2018-02-09 06:00:00 -12.2 0 Calma 2 Norte 0 -- -- --
2018-02-09 05:00:00 -11.7 0 Calma 2 Sur 0 -- -- --
2018-02-09 04:00:00 -11.4 0 Calma 3 Sur 0 -- -- --
2018-02-09 03:00:00 -10.9 0 Calma 2 Sur 0 -- -- --
2018-02-09 02:00:00 -10 0 Calma 0 Calma 0 -- -- --
2018-02-09 01:00:00 -9.4 0 Calma 3 Sur 0 -- -- --
2018-02-09 00:00:00 -8.2 0 Calma 3 Sudeste 0 -- -- --
2018-02-08 23:00:00 -7.4 0 Calma 2 Sur 0 -- -- --
2018-02-08 22:00:00 -5.6 0 Calma 2 Norte 0 -- -- --
2018-02-08 21:00:00 -4.3 0 Calma 8 Nordeste 0 -- -- --
2018-02-08 20:00:00 -2.5 3 Este 17 Nordeste 0 -- -- --
2018-02-08 19:00:00 -2.2 2 Nordeste 12 Sudoeste 0 -- -- --
2018-02-08 18:00:00 -1.3 0 Calma 9 Nordeste 0 -- -- --
2018-02-08 17:00:00 -0.5 4 Norte 19 Norte 0 -- -- --
2018-02-08 16:00:00 -0.4 5 Noroeste 19 Norte 0 -- -- --
2018-02-08 15:00:00 -0.5 11 Noroeste 24 Noroeste 0 -- -- --
2018-02-08 14:00:00 -0.7 8 Noroeste 19 Norte 0.2 -- -- --
2018-02-08 13:00:00 -0.5 6 Norte 21 Norte 0 -- -- --
2018-02-08 12:00:00 -1.3 4 Noroeste 12 Noroeste 0 -- -- --
2018-02-08 11:00:00 -3.8 0 Calma 3 Sudeste 0 -- -- --
2018-02-08 10:00:00 -4.6 0 Calma 2 Sur 0 -- -- --
2018-02-08 09:00:00 -5.2 0 Calma 2 Sudoeste 0 -- -- --
2018-02-08 08:00:00 -5.1 0 Calma 2 Sudeste 0 -- -- --
2018-02-08 07:00:00 -5 0 Calma 2 Sudoeste 0 -- -- --
2018-02-08 06:00:00 -4.8 0 Calma 6 Sur 0 -- -- --
2018-02-08 05:00:00 -4.6 0 Calma 5 Este 0 -- -- --
2018-02-08 04:00:00 -5.1 0 Calma 3 Norte 0 -- -- --
2018-02-08 03:00:00 -4.9 0 Calma 3 Oeste 0 -- -- --
2018-02-08 02:00:00 -3.9 0 Calma 4 Este 0 -- -- --
2018-02-08 01:00:00 -4.7 0 Calma 4 Sudoeste 0 -- -- --
2018-02-08 00:00:00 -5.1 0 Calma 5 Nordeste 0 -- -- --
2018-02-07 23:00:00 -4 0 Calma 11 Norte 0 -- -- --
2018-02-07 22:00:00 -2.8 0 Calma 15 Noroeste 0 -- -- --
2018-02-07 21:00:00 -2.7 3 Nordeste 12 Noroeste 0 -- -- --
2018-02-07 20:00:00 -3.4 0 Calma 8 Noroeste 0 -- -- --
2018-02-07 19:00:00 -2.3 0 Calma 12 Noroeste 0 -- -- --
2018-02-07 18:00:00 -1.2 4 Norte 17 Norte 0 -- -- --
2018-02-07 17:00:00 -0.2 9 Norte 27 Norte 0.2 -- -- --
2018-02-07 16:00:00 0.7 15 Norte 29 Noroeste 0.2 -- -- --
2018-02-07 15:00:00 1.1 13 Noroeste 28 Norte 0 -- -- --
2018-02-07 14:00:00 1.1 9 Norte 28 Norte 0.2 -- -- --
2018-02-07 13:00:00 0 7 Norte 24 Norte 0 -- -- --
2018-02-07 12:00:00 0.1 9 Norte 23 Norte 0 -- -- --
2018-02-07 11:00:00 -0.4 8 Norte 21 Nordeste 0 -- -- --
2018-02-07 10:00:00 -1.6 8 Norte 24 Norte 0 -- -- --
2018-02-07 09:00:00 -2.8 5 Norte 13 Norte 0 -- -- --
2018-02-07 08:00:00 -3.3 3 Norte 9 Noroeste 0 -- -- --
2018-02-07 07:00:00 -3.2 2 Nordeste 14 Norte 0 -- -- --
2018-02-07 06:00:00 -2.8 6 Norte 18 Norte 0 -- -- --
2018-02-07 05:00:00 -3.3 2 Nordeste 12 Nordeste 0 -- -- --
2018-02-07 04:00:00 -3.5 5 Nordeste 16 Nordeste 0 -- -- --
2018-02-07 03:00:00 -3.5 6 Nordeste 16 Nordeste 0 -- -- --
2018-02-07 02:00:00 -3 5 Nordeste 13 Norte 0 -- -- --
2018-02-07 01:00:00 -2.6 6 Nordeste 15 Nordeste 0 -- -- --
2018-02-07 00:00:00 -2.2 5 Nordeste 17 Noroeste 0 -- -- --
2018-02-06 23:00:00 -1.8 4 Norte 16 Norte 0 -- -- --
2018-02-06 22:00:00 -0.9 6 Norte 27 Noroeste 0 -- -- --
2018-02-06 21:00:00 -1.1 9 Norte 28 Noroeste 0 -- -- --
2018-02-06 20:00:00 -0.6 11 Noroeste 32 Noroeste 0 -- -- --
2018-02-06 19:00:00 -0.3 13 Norte 27 Norte 0 -- -- --
2018-02-06 18:00:00 -0.3 10 Norte 35 Norte 0 -- -- --
2018-02-06 17:00:00 0.1 16 Noroeste 37 Norte 0.2 -- -- --
2018-02-06 16:00:00 1 17 Noroeste 39 Norte 0.6 -- -- --
2018-02-06 15:00:00 2.4 15 Noroeste 33 Norte 1.4 -- -- --
2018-02-06 14:00:00 4 13 Noroeste 28 Noroeste 1 -- -- --
2018-02-06 13:00:00 3.1 10 Noroeste 26 Noroeste 1.2 -- -- --
2018-02-06 12:00:00 3.3 8 Noroeste 22 Noroeste 1.4 -- -- --
2018-02-06 11:00:00 2.5 0 Calma 8 Sudeste 1 -- -- --
2018-02-06 10:00:00 1.3 3 Sudeste 9 Sur 0.2 -- -- --
2018-02-06 09:00:00 0.6 4 Sur 11 Sur 0 -- -- --
2018-02-06 08:00:00 0.7 2 Sudeste 8 Oeste 0.2 -- -- --
2018-02-06 07:00:00 0.8 2 Sur 6 Sudeste 0.2 -- -- --
2018-02-06 06:00:00 0.6 0 Calma 6 Norte 0.2 -- -- --
2018-02-06 05:00:00 0.7 0 Calma 7 Sudoeste 0.2 -- -- --
2018-02-06 04:00:00 0.7 0 Calma 7 Sudeste 0.4 -- -- --
2018-02-06 03:00:00 0.8 0 Calma 10 Nordeste 0.2 -- -- --
2018-02-06 02:00:00 0.3 0 Calma 4 Este 0.2 -- -- --
2018-02-06 01:00:00 0.3 0 Calma 2 Noroeste 0.2 -- -- --
2018-02-06 00:00:00 0.3 0 Calma 0 Calma 0.2 -- -- --
2018-02-05 23:00:00 0.3 0 Calma 0 Calma 0.2 -- -- --
2018-02-05 22:00:00 0.3 0 Calma 0 Calma 0.2 -- -- --
2018-02-05 21:00:00 0.3 0 Calma 3 Oeste 0.2 -- -- --
2018-02-05 20:00:00 0.3 0 Calma -- -- 0.2 -- -- --
2018-02-05 19:00:00 0.4 0 Calma -- -- 0.6 -- -- --
2018-02-05 18:00:00 0.7 0 Calma 2 Sudeste 0.6 -- -- --
2018-02-05 17:00:00 0.9 0 Calma 0 Calma 0.6 -- -- --
2018-02-05 16:00:00 1.1 0 Calma 0 Calma 0.8 -- -- --
2018-02-05 15:00:00 1.2 0 Calma -- -- 0.2 -- -- --
2018-02-05 14:00:00 1.2 0 Calma -- -- 0 -- -- --
2018-02-05 13:00:00 0.9 0 Calma 0 Calma 0.2 -- -- --
2018-02-05 12:00:00 0.7 0 Calma 0 Calma 0 -- -- --
2018-02-05 11:00:00 0.8 0 Calma 0 Calma 0.2 -- -- --
2018-02-05 10:00:00 0.4 0 Calma -- -- 0 -- -- --
2018-02-05 09:00:00 0 0 Calma -- -- 0 -- -- --
2018-02-05 08:00:00 0 0 Calma -- -- 0 -- -- --
2018-02-05 07:00:00 0 0 Calma -- -- 0 -- -- --
2018-02-05 06:00:00 0.1 0 Calma -- -- 0 -- -- --
2018-02-05 05:00:00 0.1 0 Calma -- -- 0 -- -- --
2018-02-05 04:00:00 0 0 Calma -- -- 0 -- -- --
2018-02-05 03:00:00 0.1 0 Calma -- -- 0 -- -- --
2018-02-05 02:00:00 0.2 0 Calma -- -- 0.2 -- -- --
2018-02-05 01:00:00 0.2 0 Calma -- -- 0 -- -- --
2018-02-05 00:00:00 0.2 0 Calma -- -- 0 -- -- --
2018-02-04 23:00:00 0.3 0 Calma 0 Calma 0 -- -- --
2018-02-04 22:00:00 0.2 0 Calma -- -- 0 -- -- --
2018-02-04 21:00:00 0.3 0 Calma 0 Calma 0 -- -- --
2018-02-04 20:00:00 0.3 0 Calma -- -- 0 -- -- --
2018-02-04 19:00:00 0.3 0 Calma 0 Calma 0.2 -- -- --
2018-02-04 18:00:00 0.5 0 Calma -- -- 0 -- -- --
2018-02-04 17:00:00 0.6 0 Calma -- -- 0 -- -- --
2018-02-04 16:00:00 0.8 0 Calma 0 Calma 0 -- -- --
2018-02-04 15:00:00 1.2 0 Calma 3 Sur 0.2 -- -- --
2018-02-04 14:00:00 1 0 Calma 4 Sur 0.2 -- -- --
2018-02-04 13:00:00 1.2 0 Calma 2 Sur 0.4 -- -- --
2018-02-04 12:00:00 0.7 0 Calma 0 Calma 1 -- -- --
2018-02-04 11:00:00 -0.8 0 Calma 2 Sudoeste 0 -- -- --
2018-02-04 10:00:00 -2.4 0 Calma 0 Calma 0 -- -- --
2018-02-04 09:00:00 -3.4 0 Calma 2 Sudoeste 0 -- -- --
2018-02-04 08:00:00 -2.8 0 Calma 2 Sur 0 -- -- --
2018-02-04 07:00:00 -2.3 0 Calma 2 Sur 0 -- -- --
2018-02-04 06:00:00 -2.1 0 Calma 2 Sur 0 -- -- --
2018-02-04 05:00:00 -1.8 0 Calma 2 Sur 0 -- -- --
2018-02-04 04:00:00 -1.8 0 Calma 2 Sur 0 -- -- --
2018-02-04 03:00:00 -1.4 0 Calma 2 Sudoeste 0 -- -- --
2018-02-04 02:00:00 -1.2 0 Calma 2 Oeste 0 -- -- --
2018-02-04 01:00:00 -0.7 0 Calma 2 Sur 0 -- -- --
2018-02-04 00:00:00 -0.5 0 Calma 2 Sudeste 0 -- -- --
2018-02-03 23:00:00 -0.5 0 Calma 3 Noroeste 0 -- -- --
2018-02-03 22:00:00 -0.1 0 Calma 2 Sur 0 -- -- --
2018-02-03 21:00:00 0.1 0 Calma 2 Sudoeste 0 -- -- --
2018-02-03 20:00:00 0.4 0 Calma 2 Noroeste 0 -- -- --
2018-02-03 19:00:00 1.2 0 Calma 9 Este 0 -- -- --
2018-02-03 18:00:00 2.5 3 Este 10 Sudeste 0 -- -- --
2018-02-03 17:00:00 3.4 4 Sur 20 Sudeste 0 -- -- --
2018-02-03 16:00:00 3.4 5 Sudeste 12 Norte 0 -- -- --
2018-02-03 15:00:00 3.3 5 Noroeste 21 Norte 0 -- -- --
2018-02-03 14:00:00 4.8 8 Noroeste 31 Noroeste 0 -- -- --
2018-02-03 13:00:00 5.3 9 Norte 28 Norte 0 -- -- --
2018-02-03 12:00:00 4 9 Noroeste 22 Noroeste 0 -- -- --
2018-02-03 11:00:00 2.7 10 Norte 30 Noroeste 0 -- -- --
2018-02-03 10:00:00 2.6 10 Norte 24 Noroeste 0 -- -- --
2018-02-03 09:00:00 1.5 9 Norte 24 Noroeste 0 -- -- --
2018-02-03 08:00:00 1 8 Norte 20 Norte 0 -- -- --
2018-02-03 07:00:00 0.6 5 Norte 17 Noroeste 0 -- -- --
2018-02-03 06:00:00 0.4 4 Norte 14 Norte 0 -- -- --
2018-02-03 05:00:00 -0.3 4 Norte 19 Nordeste 0 -- -- --
2018-02-03 04:00:00 -0.4 5 Norte 18 Norte 0 -- -- --
2018-02-03 03:00:00 -0.8 8 Nordeste 29 Norte 0 -- -- --
2018-02-03 02:00:00 0 3 Norte 39 Noroeste 0 -- -- --
2018-02-03 01:00:00 0 3 Norte 18 Norte 0 -- -- --
2018-02-03 00:00:00 0.2 6 Norte 27 Norte 0 -- -- --
2018-02-02 23:00:00 0.3 9 Norte 22 Norte 0 -- -- --
2018-02-02 22:00:00 0.3 6 Norte 21 Norte 0 -- -- --
2018-02-02 21:00:00 0.1 10 Nordeste 30 Noroeste 0 -- -- --
2018-02-02 20:00:00 0.5 9 Norte 27 Noroeste 0 -- -- --
2018-02-02 19:00:00 -0.2 10 Nordeste 24 Noroeste 0 -- -- --
2018-02-02 18:00:00 0.6 9 Norte 26 Nordeste 0 -- -- --
2018-02-02 17:00:00 0.8 11 Norte 33 Nordeste 0 -- -- --
2018-02-02 16:00:00 1.7 12 Norte 34 Nordeste 0 -- -- --
2018-02-02 15:00:00 2 13 Norte 33 Norte 0 -- -- --
2018-02-02 14:00:00 2.5 12 Norte 33 Norte 0 -- -- --
2018-02-02 13:00:00 1.9 16 Norte 37 Nordeste 0 -- -- --
2018-02-02 12:00:00 1.2 18 Norte 35 Norte 0 -- -- --
2018-02-02 11:00:00 0.9 12 Norte 32 Nordeste 0 -- -- --
2018-02-02 10:00:00 1 9 Norte 28 Nordeste 0 -- -- --
2018-02-02 09:00:00 0.8 9 Norte 21 Noroeste 0 -- -- --
2018-02-02 08:00:00 0.7 8 Norte 21 Noroeste 0 -- -- --
2018-02-02 07:00:00 0.1 2 Nordeste 20 Noroeste 0 -- -- --
2018-02-02 06:00:00 0.6 4 Norte 17 Noroeste 0 -- -- --
2018-02-02 05:00:00 0.7 6 Norte 17 Norte 0 -- -- --
2018-02-02 04:00:00 0.8 6 Norte 17 Norte 0 -- -- --
2018-02-02 03:00:00 1 3 Nordeste 15 Noroeste 0 -- -- --
2018-02-02 02:00:00 1.2 4 Norte 27 Noroeste 0 -- -- --
2018-02-02 01:00:00 1.2 3 Nordeste 10 Norte 0 -- -- --
2018-02-02 00:00:00 1.5 5 Norte 18 Noroeste 0 -- -- --
2018-02-01 23:00:00 1.8 4 Nordeste 14 Noroeste 0 -- -- --
2018-02-01 22:00:00 2.2 5 Norte 19 Norte 0 -- -- --
2018-02-01 21:00:00 2.2 6 Nordeste 18 Noroeste 0 -- -- --
2018-02-01 20:00:00 3.1 3 Norte 15 Norte 0 -- -- --
2018-02-01 19:00:00 3.9 8 Norte 18 Nordeste 0 -- -- --
2018-02-01 18:00:00 4.5 5 Norte 26 Norte 0 -- -- --
2018-02-01 17:00:00 5 9 Norte 21 Norte 0 -- -- --
2018-02-01 16:00:00 5.7 8 Norte 28 Noroeste 0 -- -- --
2018-02-01 15:00:00 5.7 14 Noroeste 31 Norte 0 -- -- --
2018-02-01 14:00:00 6.4 11 Noroeste 23 Noroeste 0 -- -- --
2018-02-01 13:00:00 6.5 10 Noroeste 27 Noroeste 0 -- -- --
2018-02-01 12:00:00 6.3 11 Noroeste 26 Noroeste 0 -- -- --
2018-02-01 11:00:00 1.5 0 Calma 4 Oeste 0 -- -- --
2018-02-01 10:00:00 0 0 Calma 3 Este 0 -- -- --
2018-02-01 09:00:00 -0.8 0 Calma 4 Sur 0 -- -- --
2018-02-01 08:00:00 -1.1 0 Calma 3 Norte 0 -- -- --
2018-02-01 07:00:00 -1.5 0 Calma 4 Sur 0 -- -- --
2018-02-01 06:00:00 -1.7 0 Calma 2 Sur 0 -- -- --
2018-02-01 05:00:00 -1.7 0 Calma 3 Sur 0 -- -- --
2018-02-01 04:00:00 -1.9 0 Calma 2 Sur 0 -- -- --
2018-02-01 03:00:00 -1.9 0 Calma 2 Sur 0 -- -- --
2018-02-01 02:00:00 -2 0 Calma 2 Sudoeste 0 -- -- --
2018-02-01 01:00:00 -2.1 0 Calma 3 Sur 0 -- -- --
2018-02-01 00:00:00 -1.9 0 Calma 4 Sudeste 0 -- -- --
2018-01-31 23:00:00 -1.2 0 Calma 3 Sudoeste 0 -- -- --
2018-01-31 22:00:00 -0.4 0 Calma 3 Sur 0 -- -- --
2018-01-31 21:00:00 0.8 0 Calma 4 Sur 0 -- -- --
2018-01-31 20:00:00 1.9 0 Calma 3 Noroeste 0 -- -- --
2018-01-31 19:00:00 3.8 0 Calma 4 Sudoeste 0 -- -- --
2018-01-31 18:00:00 7.1 0 Calma 9 Norte 0 -- -- --
2018-01-31 17:00:00 9.7 5 Norte 9 Norte 0 -- -- --
2018-01-31 16:00:00 12.7 2 Sudoeste 12 Sudeste 0 -- -- --
2018-01-31 15:00:00 12 3 Oeste 8 Sudoeste 0 -- -- --
2018-01-31 14:00:00 9.3 3 Sudeste 7 Sudeste 0 -- -- --
2018-01-31 13:00:00 6.1 2 Sudoeste 6 Sur 0 -- -- --
2018-01-31 12:00:00 2.9 0 Calma 6 Sur 0 -- -- --
2018-01-31 11:00:00 -0.7 2 Sur 5 Sur 0 -- -- --
2018-01-31 10:00:00 -4 0 Calma 2 Sur 0 -- -- --
2018-01-31 09:00:00 -4.7 0 Calma 3 Norte 0 -- -- --
2018-01-31 08:00:00 -4.6 0 Calma 2 Sur 0 -- -- --
2018-01-31 07:00:00 -4.5 0 Calma 2 Sur 0 -- -- --
2018-01-31 06:00:00 -4.2 0 Calma 0 Calma 0 -- -- --
2018-01-31 05:00:00 -3.7 0 Calma 2 Sur 0 -- -- --
2018-01-31 04:00:00 -3.4 0 Calma 2 Sur 0 -- -- --
2018-01-31 03:00:00 -3 0 Calma 2 Sur 0 -- -- --
2018-01-31 02:00:00 -2.5 0 Calma 0 Calma 0 -- -- --
2018-01-31 01:00:00 -2 0 Calma 2 Sudoeste 0 -- -- --
2018-01-31 00:00:00 -1.4 0 Calma 2 Sur 0 -- -- --
2018-01-30 23:00:00 -0.5 0 Calma 0 Calma 0 -- -- --
2018-01-30 22:00:00 0 0 Calma 3 Sudoeste 0 -- -- --
2018-01-30 21:00:00 1 0 Calma 2 Sur 0 -- -- --
2018-01-30 20:00:00 2.3 0 Calma 2 Este 0 -- -- --
2018-01-30 19:00:00 4.2 0 Calma 2 Sur 0 -- -- --
2018-01-30 18:00:00 7.3 0 Calma 6 Nordeste 0 -- -- --
2018-01-30 17:00:00 10.8 0 Calma 8 Sudeste 0 -- -- --
2018-01-30 16:00:00 13.2 6 Sur 10 Sur 0 -- -- --
2018-01-30 15:00:00 13.4 4 Sur 9 Sudoeste 0 -- -- --
2018-01-30 14:00:00 10.8 4 Sur 8 Sudeste 0 -- -- --
2018-01-30 13:00:00 7.3 0 Calma 4 Oeste 0 -- -- --
2018-01-30 12:00:00 3.9 3 Sur 6 Sur 0 -- -- --
2018-01-30 11:00:00 0.1 0 Calma 4 Sur 0 -- -- --
2018-01-30 10:00:00 -3.4 0 Calma 3 Sur 0 -- -- --
2018-01-30 09:00:00 -3.9 0 Calma 2 Sudeste 0 -- -- --
2018-01-30 08:00:00 -3.9 0 Calma 3 Sur 0 -- -- --
2018-01-30 07:00:00 -3.6 0 Calma 3 Sudoeste 0 -- -- --
2018-01-30 06:00:00 -3.3 0 Calma 2 Sur 0 -- -- --
2018-01-30 05:00:00 -3 0 Calma 3 Sur 0 -- -- --
2018-01-30 04:00:00 -2.6 0 Calma 2 Norte 0 -- -- --
2018-01-30 03:00:00 -2.3 0 Calma 2 Sur 0 -- -- --
2018-01-30 02:00:00 -1.7 0 Calma 2 Norte 0 -- -- --
2018-01-30 01:00:00 -1.2 0 Calma 2 Sudoeste 0 -- -- --
2018-01-30 00:00:00 -0.4 0 Calma 2 Sudeste 0 -- -- --
2018-01-29 23:00:00 0.6 0 Calma 2 Sudeste 0 -- -- --
2018-01-29 22:00:00 1.7 0 Calma 3 Este 0 -- -- --
2018-01-29 21:00:00 3.5 0 Calma 4 Sur 0 -- -- --
2018-01-29 20:00:00 5.7 0 Calma 15 Nordeste 0 -- -- --
2018-01-29 19:00:00 9.7 4 Nordeste 19 Nordeste 0 -- -- --
2018-01-29 18:00:00 11.4 10 Nordeste 18 Nordeste 0 -- -- --
2018-01-29 17:00:00 12.9 5 Nordeste 17 Noroeste 0 -- -- --
2018-01-29 16:00:00 14.9 4 Noroeste 14 Noroeste 0 -- -- --
2018-01-29 15:00:00 13.3 4 Sur 8 Sur 0 -- -- --
2018-01-29 14:00:00 10.5 0 Calma 6 Sur 0 -- -- --
2018-01-29 13:00:00 5.9 0 Calma 5 Oeste 0 -- -- --
2018-01-29 12:00:00 2.4 0 Calma 4 Sur 0 -- -- --
2018-01-29 11:00:00 -1 0 Calma 3 Sur 0 -- -- --
2018-01-29 10:00:00 -4.3 0 Calma 2 Nordeste 0 -- -- --
2018-01-29 09:00:00 -5 0 Calma 2 Oeste 0 -- -- --
2018-01-29 08:00:00 -4.9 0 Calma 2 Sudoeste 0 -- -- --
2018-01-29 07:00:00 -4.8 0 Calma 2 Sur 0 -- -- --
2018-01-29 06:00:00 -4.5 0 Calma 2 Sur 0 -- -- --
2018-01-29 05:00:00 -4.2 0 Calma 2 Este 0 -- -- --
2018-01-29 04:00:00 -3.9 0 Calma 2 Sudoeste 0 -- -- --
2018-01-29 03:00:00 -3.4 0 Calma 2 Sur 0 -- -- --
2018-01-29 02:00:00 -2.9 0 Calma 2 Sur 0 -- -- --
2018-01-29 01:00:00 -2.5 0 Calma 2 Sudeste 0 -- -- --
2018-01-29 00:00:00 -2.1 0 Calma 2 Sur 0 -- -- --
2018-01-28 23:00:00 -1.4 0 Calma 0 Calma 0 -- -- --
2018-01-28 22:00:00 -0.6 0 Calma 2 Sudeste 0 -- -- --
2018-01-28 21:00:00 0.2 0 Calma 2 Sur 0 -- -- --
2018-01-28 20:00:00 1.6 0 Calma 2 Sudeste 0 -- -- --
2018-01-28 19:00:00 3.2 0 Calma 3 Sur 0 -- -- --
2018-01-28 18:00:00 6 0 Calma 5 Noroeste 0 -- -- --
2018-01-28 17:00:00 9.6 2 Norte 13 Norte 0 -- -- --
2018-01-28 16:00:00 12.9 2 Oeste 7 Sur 0 -- -- --
2018-01-28 15:00:00 12 2 Sur 6 Sur 0 -- -- --
2018-01-28 14:00:00 9.2 4 Sur 8 Sur 0 -- -- --
2018-01-28 13:00:00 5.6 2 Sudoeste 4 Sudoeste 0 -- -- --
2018-01-28 12:00:00 2.3 0 Calma 4 Sudeste 0 -- -- --
2018-01-28 11:00:00 -1.1 0 Calma 4 Sudeste 0 -- -- --
2018-01-28 10:00:00 -4.3 0 Calma 2 Sur 0 -- -- --
2018-01-28 09:00:00 -5 0 Calma 2 Sur 0 -- -- --
2018-01-28 08:00:00 -4.8 0 Calma 2 Norte 0 -- -- --
2018-01-28 07:00:00 -4.6 0 Calma 3 Sur 0 -- -- --
2018-01-28 06:00:00 -4.4 0 Calma 2 Sudeste 0 -- -- --
2018-01-28 05:00:00 -3.9 0 Calma 2 Sur 0 -- -- --
2018-01-28 04:00:00 -3.6 0 Calma 2 Sudoeste 0 -- -- --
2018-01-28 03:00:00 -3.3 0 Calma 2 Sur 0 -- -- --
2018-01-28 02:00:00 -2.9 0 Calma 2 Sudoeste 0 -- -- --
2018-01-28 01:00:00 -2.1 0 Calma 2 Norte 0 -- -- --
2018-01-28 00:00:00 -1.9 0 Calma 2 Sudoeste 0 -- -- --
2018-01-27 23:00:00 -1.2 0 Calma 4 Oeste 0 -- -- --
2018-01-27 22:00:00 -0.1 0 Calma 4 Oeste 0 -- -- --
2018-01-27 21:00:00 1.3 0 Calma 13 Este 0 -- -- --
2018-01-27 20:00:00 1.8 0 Calma 10 Este 0 -- -- --
2018-01-27 19:00:00 3.6 6 Nordeste 17 Nordeste 0 -- -- --
2018-01-27 18:00:00 3.9 5 Nordeste 20 Norte 0 -- -- --
2018-01-27 17:00:00 4.4 9 Norte 33 Norte 0 -- -- --
2018-01-27 16:00:00 5.5 13 Noroeste 33 Noroeste 0 -- -- --
2018-01-27 15:00:00 6.2 13 Noroeste 28 Noroeste 0 -- -- --
2018-01-27 14:00:00 6.2 12 Norte 30 Norte 0 -- -- --
2018-01-27 13:00:00 5.3 15 Norte 34 Norte 0 -- -- --
2018-01-27 12:00:00 4.9 13 Norte 34 Norte 0 -- -- --
2018-01-27 11:00:00 4.1 9 Norte 30 Norte 0 -- -- --
2018-01-27 10:00:00 3.2 10 Norte 35 Norte 0 -- -- --
2018-01-27 09:00:00 3.7 16 Norte 39 Noroeste 0 -- -- --
2018-01-27 08:00:00 3.5 9 Norte 38 Nordeste 0 -- -- --
2018-01-27 07:00:00 3.4 14 Norte 37 Norte 0 -- -- --
2018-01-27 06:00:00 3.4 13 Norte 37 Norte 0 -- -- --
2018-01-27 05:00:00 3.2 18 Norte 32 Noroeste 0 -- -- --
2018-01-27 04:00:00 2.5 14 Norte 36 Noroeste 0 -- -- --
2018-01-27 03:00:00 2.7 12 Norte 30 Norte 0 -- -- --
2018-01-27 02:00:00 3 6 Norte 22 Norte 0 -- -- --
2018-01-27 01:00:00 2.2 8 Norte 27 Norte 0 -- -- --
2018-01-27 00:00:00 1.8 3 Nordeste 27 Norte 0 -- -- --
2018-01-26 23:00:00 2.6 6 Norte 25 Noroeste 0 -- -- --
2018-01-26 22:00:00 2.6 6 Norte 26 Norte 0 -- -- --
2018-01-26 21:00:00 2.9 11 Norte 34 Norte 0 -- -- --
2018-01-26 20:00:00 3.4 14 Norte 35 Norte 0.2 -- -- --
2018-01-26 19:00:00 3.3 11 Norte 27 Noroeste 0 -- -- --
2018-01-26 18:00:00 3.8 10 Norte 32 Noroeste 0 -- -- --
2018-01-26 17:00:00 2.9 4 Nordeste 24 Noroeste 0 -- -- --
2018-01-26 16:00:00 3.3 8 Norte 37 Noroeste 0 -- -- --
2018-01-26 15:00:00 4.4 14 Norte 31 Norte 0 -- -- --
2018-01-26 14:00:00 4.7 14 Norte 35 Norte 0 -- -- --
2018-01-26 13:00:00 4.3 10 Norte 32 Noroeste 0 -- -- --
2018-01-26 12:00:00 2.9 6 Norte 17 Noroeste 0 -- -- --
2018-01-26 11:00:00 2.4 5 Norte 17 Norte 0 -- -- --
2018-01-26 10:00:00 2.2 6 Norte 33 Noroeste 0 -- -- --
2018-01-26 09:00:00 2.2 2 Nordeste 12 Nordeste 0.2 -- -- --
2018-01-26 08:00:00 2.2 3 Nordeste 12 Norte 0 -- -- --
2018-01-26 07:00:00 3 4 Norte 21 Noroeste 0 -- -- --
2018-01-26 06:00:00 3 0 Calma 10 Nordeste 0 -- -- --
2018-01-26 05:00:00 3 2 Nordeste 9 Norte 0 -- -- --
2018-01-26 04:00:00 3 0 Calma 12 Nordeste 0.2 -- -- --
2018-01-26 03:00:00 3.2 4 Nordeste 13 Nordeste 0.4 -- -- --
2018-01-26 02:00:00 3.4 3 Nordeste 12 Norte 0.8 -- -- --
2018-01-26 01:00:00 3.9 6 Norte 26 Noroeste 2.2 -- -- --
2018-01-26 00:00:00 5 3 Nordeste 18 Oeste 0.4 -- -- --
2018-01-25 23:00:00 5.6 0 Calma 8 Noroeste 0.4 -- -- --
2018-01-25 22:00:00 5.4 0 Calma 4 Sudoeste 0 -- -- --
2018-01-25 21:00:00 5.3 2 Sudoeste 6 Sudoeste 0 -- -- --
2018-01-25 20:00:00 5.9 0 Calma 3 Nordeste 0 -- -- --
2018-01-25 19:00:00 7.1 0 Calma 12 Norte 0 -- -- --
2018-01-25 18:00:00 8.8 4 Norte 8 Nordeste 0 -- -- --
2018-01-25 17:00:00 11.1 0 Calma 10 Sur 0 -- -- --
2018-01-25 16:00:00 12.9 4 Sur 22 Sudoeste 0 -- -- --
2018-01-25 15:00:00 13.3 9 Sur 18 Sur 0 -- -- --
2018-01-25 14:00:00 10.6 3 Sudeste 7 Este 0 -- -- --
2018-01-25 13:00:00 7.8 2 Noroeste 8 Sur 0 -- -- --
2018-01-25 12:00:00 5.3 2 Sur 7 Sur 0 -- -- --
2018-01-25 11:00:00 1.9 0 Calma 6 Noroeste 0 -- -- --
2018-01-25 10:00:00 -0.2 0 Calma 4 Oeste 0 -- -- --
2018-01-25 09:00:00 -0.7 0 Calma 4 Noroeste 0 -- -- --
2018-01-25 08:00:00 -0.7 0 Calma 5 Sur 0 -- -- --
2018-01-25 07:00:00 -0.9 0 Calma 3 Sudeste 0 -- -- --
2018-01-25 06:00:00 -0.7 0 Calma 7 Sudeste 0 -- -- --
2018-01-25 05:00:00 -0.8 0 Calma 3 Sudeste 0 -- -- --
2018-01-25 04:00:00 -1.2 2 Este 5 Este 0 -- -- --
2018-01-25 03:00:00 -0.9 0 Calma 5 Este 0 -- -- --
2018-01-25 02:00:00 -0.9 0 Calma 4 Noroeste 0 -- -- --
2018-01-25 01:00:00 -0.6 0 Calma 5 Noroeste 0 -- -- --
2018-01-25 00:00:00 -0.1 0 Calma 3 Oeste 0 -- -- --
2018-01-24 23:00:00 0.6 0 Calma 4 Sur 0 -- -- --
2018-01-24 22:00:00 1.3 0 Calma 3 Sudeste 0 -- -- --
2018-01-24 21:00:00 2.6 0 Calma 4 Sudoeste 0 -- -- --
2018-01-24 20:00:00 4.2 3 Noroeste 6 Sur 0 -- -- --
2018-01-24 19:00:00 6 0 Calma 7 Nordeste 0 -- -- --
2018-01-24 18:00:00 8.7 0 Calma 6 Nordeste 0 -- -- --
2018-01-24 17:00:00 12.5 0 Calma 8 Sur 0 -- -- --
2018-01-24 16:00:00 14.7 3 Sudoeste 8 Sur 0 -- -- --
2018-01-24 15:00:00 14.3 3 Sur 9 Sur 0 -- -- --
2018-01-24 14:00:00 12 2 Sur 7 Sur 0 -- -- --
2018-01-24 13:00:00 7.8 2 Sudoeste 5 Sudoeste 0 -- -- --
2018-01-24 12:00:00 4.2 0 Calma 4 Sur 0 -- -- --
2018-01-24 11:00:00 0.5 0 Calma 4 Sur 0 -- -- --
2018-01-24 10:00:00 -2.6 0 Calma 3 Sudeste 0 -- -- --
2018-01-24 09:00:00 -3 0 Calma 2 Oeste 0 -- -- --
2018-01-24 08:00:00 -2.8 0 Calma 2 Este 0 -- -- --
2018-01-24 07:00:00 -2.7 0 Calma 2 Sudeste 0 -- -- --
2018-01-24 06:00:00 -2.2 0 Calma 2 Este 0 -- -- --
2018-01-24 05:00:00 -1.8 0 Calma 2 Sur 0 -- -- --
2018-01-24 04:00:00 -1.5 0 Calma 0 Calma 0 -- -- --
2018-01-24 03:00:00 -0.9 0 Calma 2 Sur 0 -- -- --
2018-01-24 02:00:00 -0.3 0 Calma 2 Sur 0 -- -- --
2018-01-24 01:00:00 0.4 0 Calma 2 Sur 0 -- -- --
2018-01-24 00:00:00 1.1 0 Calma 2 Sudoeste 0 -- -- --
2018-01-23 23:00:00 2.2 0 Calma 2 Sur 0 -- -- --
2018-01-23 22:00:00 3.6 0 Calma 3 Sur 0 -- -- --
2018-01-23 21:00:00 5 0 Calma 2 Este 0 -- -- --
2018-01-23 20:00:00 7.6 0 Calma 6 Sur 0 -- -- --
2018-01-23 19:00:00 12.2 7 Nordeste 18 Nordeste 0 -- -- --
2018-01-23 18:00:00 13.6 8 Nordeste 19 Nordeste 0 -- -- --
2018-01-23 17:00:00 15.2 8 Norte 19 Nordeste 0 -- -- --
2018-01-23 16:00:00 17.3 11 Norte 19 Noroeste 0 -- -- --
2018-01-23 15:00:00 17.6 8 Norte 17 Nordeste 0 -- -- --
2018-01-23 14:00:00 14.5 2 Sudoeste 6 Sudeste 0 -- -- --
2018-01-23 13:00:00 10.8 0 Calma 5 Sur 0 -- -- --
2018-01-23 12:00:00 8.4 2 Sur 5 Sur 0 -- -- --
2018-01-23 11:00:00 5.4 0 Calma 4 Sur 0 -- -- --
2018-01-23 10:00:00 2.1 0 Calma 3 Sur 0 -- -- --
2018-01-23 09:00:00 2.4 0 Calma 2 Sur 0 -- -- --
2018-01-23 08:00:00 3.5 0 Calma 4 Sudeste 0 -- -- --
2018-01-23 07:00:00 4.9 2 Sur 6 Sudeste 0 -- -- --
2018-01-23 06:00:00 7 2 Norte 12 Nordeste 0 -- -- --
2018-01-23 05:00:00 7.2 0 Calma 15 Este 0 -- -- --
2018-01-23 04:00:00 9.7 8 Este 20 Nordeste 0 -- -- --
2018-01-23 03:00:00 9.5 9 Nordeste 22 Noroeste 0 -- -- --
2018-01-23 02:00:00 9.9 5 Norte 32 Norte 0 -- -- --
2018-01-23 01:00:00 10.3 10 Norte 26 Norte 0 -- -- --
2018-01-23 00:00:00 11 12 Norte 32 Noroeste 0 -- -- --
2018-01-22 23:00:00 11.4 13 Norte 31 Norte 0 -- -- --
2018-01-22 22:00:00 11.9 9 Norte 20 Noroeste 0 -- -- --
2018-01-22 21:00:00 12.5 6 Norte 23 Noroeste 0 -- -- --
2018-01-22 20:00:00 12.9 8 Noroeste 19 Norte 0 -- -- --
2018-01-22 19:00:00 13.1 4 Noroeste 21 Norte 0 -- -- --
2018-01-22 18:00:00 13.1 5 Norte 24 Noroeste 0 -- -- --
2018-01-22 17:00:00 14.7 10 Norte 31 Norte 0 -- -- --
2018-01-22 16:00:00 17.5 11 Norte 25 Noroeste 0 -- -- --
2018-01-22 15:00:00 18.8 9 Noroeste 22 Norte 0 -- -- --
2018-01-22 14:00:00 17.8 7 Norte 19 Nordeste 0 -- -- --
2018-01-22 13:00:00 17.2 12 Nordeste 27 Nordeste 0 -- -- --
2018-01-22 12:00:00 9.8 2 Sudoeste 4 Oeste 0 -- -- --
2018-01-22 11:00:00 6 0 Calma 5 Sudeste 0 -- -- --
2018-01-22 10:00:00 3.1 0 Calma 4 Sur 0 -- -- --
2018-01-22 09:00:00 4 0 Calma 6 Sur 0 -- -- --
2018-01-22 08:00:00 5.4 0 Calma 9 Norte 0 -- -- --
2018-01-22 07:00:00 8.7 5 Norte 18 Nordeste 0 -- -- --
2018-01-22 06:00:00 8.2 4 Norte 16 Nordeste 0 -- -- --
2018-01-22 05:00:00 8.9 2 Nordeste 19 Nordeste 0 -- -- --
2018-01-22 04:00:00 10.5 8 Nordeste 19 Nordeste 0 -- -- --
2018-01-22 03:00:00 10.4 10 Nordeste 18 Norte 0 -- -- --
2018-01-22 02:00:00 10.6 7 Norte 21 Norte 0 -- -- --
2018-01-22 01:00:00 10.3 5 Norte 17 Nordeste 0 -- -- --
2018-01-22 00:00:00 11 5 Norte 25 Noroeste 0 -- -- --